Aérodrome :
LOGIN :

S'inscrire | Disclaimer

   EN    FR    IT 

 










Légende :    VFR   VFR Marginal   IFR   IFR Intensif   IFR Très Intensif
Visi : 
Plafond : 
>= 8 km
>= 3000ft
5 à 8 km
1000 à 3000 ft
1500m à 5 km
500 à 1000 ft
800 à 1500m
200 à 500 ft
< 800m
< 200 ft
Symboles :   Orages  Brouillard  Fortes neiges  Fortes précipitations  Vent > 20 kt
SIGMETs :   Divers  Orages  Givrage  Turbulence  Onde Orograph.  Cendres Volcan.







- Altitude de l'aérodrome : 39 ft
- Code IATA : ANR


EBAW - Anvers / Antwerpen Deurne

DERNIER METAR :
  • 141950Z 07004KT 7000 BKN041 01/M00 Q1025 BECMG 4500 BR

METARs EXPIRÉS :
  • 141920Z 05005KT 7000 BKN041 01/M01 Q1025 BECMG 4500 BR
  • 141850Z 03003KT 7000 BKN031 01/M00 Q1025 BECMG 4500 BR
  • 141820Z 01003KT 7000 BKN017 BKN030 01/M00 Q1025 NOSIG
  • 141750Z VRB02KT 7000 FEW017 BKN035 01/M00 Q1025 NOSIG
  • 141720Z 04004KT 7000 FEW010 BKN035 01/M01 Q1025 NOSIG

TAF TAF EBAW
Valide du 14 à 18h jusqu'au 15 à 03h UTC


141710Z 1418/1503 06003KT 6000 FEW009 BKN035
BECMG 1418/1420 4000 BR
PROB40 1420/1503 2500
Pas de NOTAMs connus pour ce terrain.



MET'MAP, la Météo Aéronautique d'un coup d'oeil ! - Copyright ORBIFLY Décembre 2007 - Disclaimer

ORBIFLY MET'MAP TEAM :

Programmation & Développement : Alexandra Zaïnal
Conception & Développement : Baudouin d'Aumeries
Co-Programmation & Développement : Marc-Olivier Méhu
Soutien technique & logistique : Manuel Goepfert

Contact : metmap@orbifly.com




SOURCES & CREDITS :

   NOAA